Illinois City, Illinois
Current Conditions -  °F | °C
As of 7:15 AM on Thursday 23 Oct 2014 (Local Time) from KMUT Reporting Station
Broken Clouds Broken Clouds  
Wind Chill: 44°   Ceiling: 4100
Heat Index: 46°   Visibility: 10mi
Dew Point: 39°   Wind: 6mph
Humidity: 76%   Direction: 130°SE
Pressure: 30.12"   Gusts: NA
Location:  41.4°N, 90.9°W
Report Text: KMUT 231215Z AUTO 13005KT 10SM BKN041 BKN050 08/04 A3012 RMK AO2
Loading
Personal Weather Stations






























Interactive Weather Map
Tropical Storm Tracking
New forecast layout! Learn more

10-Day Weather Forecast

Advertisements
Track Severe Weather on mobile